Time;durP1;ratioP1;P1;durP2;ratioP2;P2;SDS_P1;SDS_P2;PMS_P1;PMS_P2;Temp;Humidity;BMP_temperature;BMP_pressure;BME280_temperature;BME280_humidity;BME280_pressure;Samples;Min_cycle;Max_cycle;Signal;HPM_P1;HPM_P2
2023/03/27 00:00:15;;;;;;;;;;;;;;;15.88;49.44;101571.72;2027345;29;19923;-57
2023/03/27 00:01:18;;;;;;;;;;;;;;;15.87;49.32;101570.94;2031605;29;20296;-57
2023/03/27 00:02:20;;;;;;;;;;;;;;;15.87;49.48;101570.94;2033679;29;21175;-56
2023/03/27 00:03:23;;;;;;;;;;;;;;;15.87;49.24;101576.38;2033559;29;20673;-57
2023/03/27 00:04:25;;;;;;;;;;;;;;;15.87;49.21;101575.63;2036137;29;20033;-56
2023/03/27 00:05:27;;;;;;;;;;;;;;;15.86;49.36;101574.03;2028829;29;19927;-57
2023/03/27 00:06:33;;;;;;;;;;;;;;;15.86;49.32;101574.81;2026167;29;19934;-57
2023/03/27 00:07:35;;;;;;;;;;;;;;;15.86;49.31;101574.03;2026509;29;19958;-57
2023/03/27 00:08:37;;;;;;;;;;;;;;;15.85;49.34;101584.16;2025336;29;19934;-57
2023/03/27 00:09:43;;;;;;;;;;;;;;;15.86;49.29;101577.53;2029706;29;20010;-57
2023/03/27 00:10:46;;;;;;;;;;;;;;;15.86;49.49;101574.03;2022981;29;20329;-57
2023/03/27 00:11:49;;;;;;;;;;;;;;;15.85;49.29;101583.34;2026606;29;20026;-55
2023/03/27 00:12:51;;;;;;;;;;;;;;;15.85;49.50;101577.91;2029878;29;19927;-57
2023/03/27 00:13:54;;;;;;;;;;;;;;;15.84;49.44;101585.28;2030728;29;20381;-56
2023/03/27 00:14:55;;;;;;;;;;;;;;;15.84;49.22;101582.53;2031298;29;20195;-57
2023/03/27 00:15:59;;;;;;;;;;;;;;;15.84;49.45;101582.53;2024461;29;19927;-57
2023/03/27 00:17:02;;;;;;;;;;;;;;;15.84;49.32;101587.22;2028811;29;19970;-56
2023/03/27 00:18:05;;;;;;;;;;;;;;;15.84;49.37;101588.00;2031739;29;19927;-57
2023/03/27 00:19:06;;;;;;;;;;;;;;;15.83;49.19;101588.34;2029378;29;19926;-57
2023/03/27 00:20:09;;;;;;;;;;;;;;;15.82;49.37;101590.31;2027129;29;20348;-55
2023/03/27 00:21:11;;;;;;;;;;;;;;;15.82;49.32;101584.88;2032192;29;20308;-57
2023/03/27 00:22:14;;;;;;;;;;;;;;;15.83;49.48;101586.44;2026044;29;19927;-57
2023/03/27 00:23:16;;;;;;;;;;;;;;;15.82;49.31;101584.88;2028367;29;19958;-56
2023/03/27 00:24:19;;;;;;;;;;;;;;;15.82;49.40;101584.88;2030658;29;19926;-57
2023/03/27 00:25:21;;;;;;;;;;;;;;;15.82;49.37;101584.06;2031269;29;19974;-56
2023/03/27 00:26:24;;;;;;;;;;;;;;;15.81;49.30;101583.25;2027310;29;19974;-57
2023/03/27 00:27:25;;;;;;;;;;;;;;;15.82;49.41;101587.59;2027036;29;20432;-58
2023/03/27 00:28:29;;;;;;;;;;;;;;;15.81;49.53;101583.25;2027057;29;20285;-57
2023/03/27 00:29:30;;;;;;;;;;;;;;;15.81;49.42;101588.72;2024980;29;20456;-57
2023/03/27 00:30:34;;;;;;;;;;;;;;;15.81;49.49;101585.22;2032343;29;20397;-58
2023/03/27 00:31:37;;;;;;;;;;;;;;;15.80;49.51;101581.69;2030063;29;20304;-56
2023/03/27 00:32:39;;;;;;;;;;;;;;;15.79;49.29;101577.38;2026874;29;19954;-57
2023/03/27 00:33:41;;;;;;;;;;;;;;;15.80;49.42;101586.34;2029340;29;20357;-57
2023/03/27 00:34:44;;;;;;;;;;;;;;;15.80;49.41;101594.50;2027720;29;20278;-57
2023/03/27 00:35:47;;;;;;;;;;;;;;;15.80;49.44;101597.25;2024481;29;19923;-57
2023/03/27 00:36:52;;;;;;;;;;;;;;;15.79;49.50;101601.13;2025290;29;19927;-57
2023/03/27 00:37:54;;;;;;;;;;;;;;;15.78;49.59;101603.03;2029149;29;20035;-56
2023/03/27 00:38:57;;;;;;;;;;;;;;;15.79;49.47;101606.56;2034783;29;19931;-57
2023/03/27 00:39:59;;;;;;;;;;;;;;;15.77;49.29;101604.19;2035475;29;20277;-58
2023/03/27 00:41:02;;;;;;;;;;;;;;;15.78;49.53;101605.75;2033061;29;19935;-58
2023/03/27 00:42:03;;;;;;;;;;;;;;;15.78;49.47;101610.41;2027915;29;19969;-57
2023/03/27 00:43:19;;;;;;;;;;;;;;;15.77;49.35;101606.91;2025447;29;19927;-57
2023/03/27 00:44:22;;;;;;;;;;;;;;;15.77;49.45;101606.91;2029242;29;20297;-57
2023/03/27 00:45:27;;;;;;;;;;;;;;;15.77;49.42;101611.56;2037404;29;20155;-55
2023/03/27 00:46:35;;;;;;;;;;;;;;;15.77;49.32;101611.56;2030161;29;19926;-57
2023/03/27 00:47:38;;;;;;;;;;;;;;;15.77;49.34;101623.25;2026369;29;19931;-57
2023/03/27 00:48:42;;;;;;;;;;;;;;;15.76;49.37;101618.16;2024952;29;19927;-57
2023/03/27 00:49:44;;;;;;;;;;;;;;;15.76;49.40;101618.94;2027269;29;20018;-57
2023/03/27 00:50:48;;;;;;;;;;;;;;;15.75;49.40;101622.81;2025546;29;19934;-56
2023/03/27 00:51:51;;;;;;;;;;;;;;;15.69;49.36;101616.06;2036356;29;20355;-56
2023/03/27 00:52:57;;;;;;;;;;;;;;;15.74;49.40;101626.69;2031595;29;19967;-57
2023/03/27 00:53:59;;;;;;;;;;;;;;;15.75;49.58;101627.47;2025607;29;20342;-57
2023/03/27 00:55:04;;;;;;;;;;;;;;;15.74;49.49;101626.69;2030154;29;20369;-55
2023/03/27 00:56:06;;;;;;;;;;;;;;;15.74;49.43;101617.72;2027132;29;19926;-55
2023/03/27 00:57:11;;;;;;;;;;;;;;;15.74;49.40;101620.44;2032042;29;19926;-56
2023/03/27 00:58:15;;;;;;;;;;;;;;;15.72;49.40;101623.53;2031514;29;20021;-57
2023/03/27 00:59:20;;;;;;;;;;;;;;;15.73;49.58;101622.38;2026217;29;19927;-56
2023/03/27 01:00:22;;;;;;;;;;;;;;;15.73;49.43;101627.06;2024135;29;20365;-56
2023/03/27 01:01:27;;;;;;;;;;;;;;;15.73;49.39;101625.09;2029815;29;20585;-57
2023/03/27 01:02:29;;;;;;;;;;;;;;;15.73;49.42;101629.78;2026419;29;19963;-57
2023/03/27 01:03:33;;;;;;;;;;;;;;;15.73;49.52;101624.31;2023778;29;19954;-57
2023/03/27 01:04:36;;;;;;;;;;;;;;;15.72;49.56;101623.53;2025781;29;19928;-57
2023/03/27 01:05:40;;;;;;;;;;;;;;;15.72;49.59;101623.53;2030033;29;20320;-55
2023/03/27 01:06:43;;;;;;;;;;;;;;;15.71;49.35;101621.97;2025961;29;20018;-55
2023/03/27 01:07:48;;;;;;;;;;;;;;;15.72;49.45;101614.56;2022535;29;19927;-57
2023/03/27 01:09:03;;;;;;;;;;;;;;;15.71;49.46;101621.97;2018367;29;19927;-57
2023/03/27 01:10:06;;;;;;;;;;;;;;;15.70;49.51;101623.09;2016381;29;19972;-56
2023/03/27 01:11:14;;;;;;;;;;;;;;;15.71;49.59;101621.97;2031929;29;19927;-56
2023/03/27 01:12:28;;;;;;;;;;;;;;;15.71;49.42;101621.97;2030381;29;19971;-55
2023/03/27 01:13:39;;;;;;;;;;;;;;;15.70;49.49;101620.38;2023398;29;20481;-57
2023/03/27 01:14:46;;;;;;;;;;;;;;;15.70;49.50;101619.56;2023082;29;19931;-57
2023/03/27 01:15:51;;;;;;;;;;;;;;;15.70;49.40;101625.81;2030888;29;19927;-55
2023/03/27 01:16:58;;;;;;;;;;;;;;;15.70;49.41;101623.09;2040054;29;20403;-57
2023/03/27 01:18:14;;;;;;;;;;;;;;;15.69;49.58;101618.78;2031374;29;20445;-57
2023/03/27 01:19:35;;;;;;;;;;;;;;;15.70;49.31;101628.53;2031318;29;19931;-55
2023/03/27 01:20:54;;;;;;;;;;;;;;;15.69;49.37;101621.53;2031174;29;19934;-55
2023/03/27 01:22:18;;;;;;;;;;;;;;;15.69;49.45;101624.25;2016089;29;20062;-57
2023/03/27 01:23:36;;;;;;;;;;;;;;;15.68;49.54;101622.66;2026738;29;19927;-57
2023/03/27 01:25:19;;;;;;;;;;;;;;;15.68;49.44;101619.91;2031048;29;20021;-57
2023/03/27 01:26:41;;;;;;;;;;;;;;;15.68;49.42;101624.59;2025212;29;19927;-57
2023/03/27 01:28:01;;;;;;;;;;;;;;;15.67;49.57;101621.09;2021198;29;19990;-58
2023/03/27 01:29:06;;;;;;;;;;;;;;;15.68;49.28;101624.59;2027246;29;19927;-57
2023/03/27 01:30:14;;;;;;;;;;;;;;;15.68;49.55;101622.66;2023431;29;19927;-55
2023/03/27 01:31:24;;;;;;;;;;;;;;;15.67;49.42;101625.72;2025477;29;19966;-57
2023/03/27 01:32:45;;;;;;;;;;;;;;;15.67;49.54;101628.44;2014739;29;20346;-57
2023/03/27 01:33:56;;;;;;;;;;;;;;;15.66;49.46;101630.41;2019272;29;20014;-56
2023/03/27 01:35:26;;;;;;;;;;;;;;;15.67;49.59;101631.16;2032917;29;19934;-57
2023/03/27 01:36:40;;;;;;;;;;;;;;;15.66;49.37;101630.41;2006160;29;19968;-56
2023/03/27 01:38:00;;;;;;;;;;;;;;;15.66;49.29;101630.41;2028073;29;19940;-55
2023/03/27 01:39:18;;;;;;;;;;;;;;;15.66;49.34;101632.31;2030596;29;19922;-57
2023/03/27 01:40:24;;;;;;;;;;;;;;;15.66;49.51;101627.69;2017139;29;20047;-58
2023/03/27 01:41:28;;;;;;;;;;;;;;;15.66;49.51;101629.59;2018264;29;20439;-56
2023/03/27 01:42:34;;;;;;;;;;;;;;;15.65;49.41;101628.81;2028443;29;20443;-56
2023/03/27 01:43:40;;;;;;;;;;;;;;;15.66;49.38;101633.13;2031512;29;20341;-57
2023/03/27 01:44:46;;;;;;;;;;;;;;;15.65;49.45;101631.53;2031448;29;20444;-54
2023/03/27 01:45:51;;;;;;;;;;;;;;;15.63;48.83;101622.94;2033197;29;19934;-55
2023/03/27 01:46:56;;;;;;;;;;;;;;;15.65;49.37;101636.19;2019568;29;20018;-56
2023/03/27 01:48:03;;;;;;;;;;;;;;;15.63;49.52;101631.13;2019964;29;19935;-56
2023/03/27 01:49:09;;;;;;;;;;;;;;;15.65;49.36;101630.75;2019821;29;19927;-56
2023/03/27 01:50:18;;;;;;;;;;;;;;;15.64;49.46;101626.44;2021672;29;19934;-57
2023/03/27 01:51:22;;;;;;;;;;;;;;;15.63;49.39;101625.66;2029284;29;20415;-56
2023/03/27 01:52:28;;;;;;;;;;;;;;;15.64;49.56;101637.31;2029036;29;20396;-59
2023/03/27 01:53:33;;;;;;;;;;;;;;;15.64;49.51;101637.31;2029969;29;20389;-57
2023/03/27 01:54:40;;;;;;;;;;;;;;;15.62;49.39;101634.97;2034222;29;19985;-55
2023/03/27 01:55:46;;;;;;;;;;;;;;;15.63;49.32;101633.84;2031566;29;20008;-57
2023/03/27 01:56:52;;;;;;;;;;;;;;;15.63;49.32;101642.00;2017006;29;19934;-55
2023/03/27 01:57:59;;;;;;;;;;;;;;;15.62;49.37;101645.84;2023195;29;19934;-58
2023/03/27 01:59:04;;;;;;;;;;;;;;;15.63;49.52;101643.94;2019093;29;19927;-57
2023/03/27 02:00:11;;;;;;;;;;;;;;;15.61;49.41;101643.47;2021181;29;19933;-57
2023/03/27 02:01:22;;;;;;;;;;;;;;;15.61;49.50;101649.72;2026876;29;19927;-57
2023/03/27 02:02:26;;;;;;;;;;;;;;;15.62;49.50;101651.28;2028103;29;20403;-56
2023/03/27 02:03:33;;;;;;;;;;;;;;;15.62;49.29;101648.56;2018841;29;19943;-57
2023/03/27 02:04:39;;;;;;;;;;;;;;;15.62;49.40;101647.81;2017599;29;19939;-56
2023/03/27 02:05:44;;;;;;;;;;;;;;;15.62;49.63;101655.97;2029225;29;19927;-57
2023/03/27 02:06:50;;;;;;;;;;;;;;;15.61;49.54;101659.81;2021467;29;20033;-57
2023/03/27 02:07:55;;;;;;;;;;;;;;;15.59;49.54;101649.28;2019196;29;20030;-58
2023/03/27 02:09:00;;;;;;;;;;;;;;;15.61;49.42;101659.81;2023343;29;19966;-57
2023/03/27 02:10:08;;;;;;;;;;;;;;;15.61;49.45;101657.09;2022792;29;20385;-56
2023/03/27 02:11:13;;;;;;;;;;;;;;;15.60;49.54;101653.56;2024340;29;20336;-56
2023/03/27 02:12:19;;;;;;;;;;;;;;;15.59;49.27;101652.00;2020475;29;19982;-57
2023/03/27 02:13:26;;;;;;;;;;;;;;;15.59;49.53;101652.00;2038071;29;19922;-56
2023/03/27 02:14:30;;;;;;;;;;;;;;;15.59;49.48;101654.72;2033439;29;19927;-57
2023/03/27 02:15:34;;;;;;;;;;;;;;;15.58;49.56;101658.59;2026173;29;20022;-57
2023/03/27 02:16:42;;;;;;;;;;;;;;;15.59;49.35;101660.19;2020036;29;20546;-56
2023/03/27 02:17:46;;;;;;;;;;;;;;;15.58;49.46;101666.78;2024347;29;19971;-57
2023/03/27 02:18:53;;;;;;;;;;;;;;;15.58;49.50;101661.31;2017853;29;19974;-57
2023/03/27 02:19:57;;;;;;;;;;;;;;;15.57;49.38;101654.28;2010945;29;20325;-57
2023/03/27 02:21:02;;;;;;;;;;;;;;;15.57;49.42;101665.16;2016295;29;19931;-57
2023/03/27 02:22:05;;;;;;;;;;;;;;;15.58;49.61;101669.50;2015225;29;19934;-57
2023/03/27 02:23:18;;;;;;;;;;;;;;;15.57;49.37;101662.44;2022736;29;19936;-56
2023/03/27 02:24:21;;;;;;;;;;;;;;;15.57;49.45;101665.16;2024055;29;20275;-56
2023/03/27 02:25:26;;;;;;;;;;;;;;;15.57;49.43;101665.16;2031448;29;20022;-57
2023/03/27 02:26:29;;;;;;;;;;;;;;;15.57;49.66;101669.84;2010884;29;19928;-57
2023/03/27 02:27:36;;;;;;;;;;;;;;;15.57;49.43;101667.13;2023702;29;19966;-57
2023/03/27 02:28:46;;;;;;;;;;;;;;;15.56;49.59;101677.22;2028220;29;20049;-57
2023/03/27 02:29:54;;;;;;;;;;;;;;;15.56;49.42;101666.31;2027365;29;20341;-56
2023/03/27 02:31:00;;;;;;;;;;;;;;;15.56;49.56;101669.03;2023392;29;19927;-55
2023/03/27 02:32:16;;;;;;;;;;;;;;;15.55;49.62;101670.19;2021947;29;20012;-57
2023/03/27 02:33:24;;;;;;;;;;;;;;;15.55;49.50;101672.94;2037511;29;19959;-55
2023/03/27 02:34:37;;;;;;;;;;;;;;;15.56;49.54;101669.03;2028537;29;20508;-56
2023/03/27 02:35:47;;;;;;;;;;;;;;;15.55;49.59;101672.94;2025518;29;19927;-56
2023/03/27 02:36:53;;;;;;;;;;;;;;;15.56;49.49;101679.13;2025684;29;19976;-56
2023/03/27 02:38:07;;;;;;;;;;;;;;;15.55;49.45;101674.84;2027270;29;19927;-57
2023/03/27 02:39:21;;;;;;;;;;;;;;;15.55;49.50;101672.13;2031227;29;19934;-56
2023/03/27 02:40:32;;;;;;;;;;;;;;;15.54;49.40;101676.00;2026520;29;19927;-55
2023/03/27 02:41:58;;;;;;;;;;;;;;;15.53;49.39;101680.66;2029338;29;19927;-56
2023/03/27 02:43:16;;;;;;;;;;;;;;;15.54;49.47;101679.50;2022240;29;19927;-59
2023/03/27 02:44:23;;;;;;;;;;;;;;;15.53;49.52;101677.94;2023494;29;19931;-57
2023/03/27 02:45:36;;;;;;;;;;;;;;;15.52;49.52;101673.63;2029435;29;19927;-56
2023/03/27 02:46:41;;;;;;;;;;;;;;;15.53;49.49;101671.69;2024425;29;19932;-57
2023/03/27 02:47:48;;;;;;;;;;;;;;;15.53;49.59;101686.09;2031310;29;19926;-56
2023/03/27 02:48:52;;;;;;;;;;;;;;;15.53;49.46;101674.41;2019661;29;19930;-57
2023/03/27 02:49:58;;;;;;;;;;;;;;;15.52;49.40;101687.25;2035784;29;20386;-57
2023/03/27 02:51:02;;;;;;;;;;;;;;;15.52;49.54;101675.56;2033632;29;20628;-56
2023/03/27 02:52:07;;;;;;;;;;;;;;;15.52;49.40;101691.88;2031486;29;19981;-57
2023/03/27 02:53:10;;;;;;;;;;;;;;;15.52;49.46;101687.25;2031168;29;20365;-56
2023/03/27 02:54:16;;;;;;;;;;;;;;;15.51;49.60;101682.91;2034017;29;19976;-55
2023/03/27 02:55:20;;;;;;;;;;;;;;;15.51;49.41;101690.28;2027989;29;19975;-57
2023/03/27 02:56:26;;;;;;;;;;;;;;;15.51;49.63;101688.38;2027367;29;20457;-57
2023/03/27 02:57:30;;;;;;;;;;;;;;;15.50;49.55;101684.06;2026407;29;19937;-56
2023/03/27 02:58:56;;;;;;;;;;;;;;;15.50;49.38;101689.53;2025413;29;19973;-57
2023/03/27 03:00:17;;;;;;;;;;;;;;;15.50;49.30;101684.06;2027360;29;19926;-57
2023/03/27 03:01:25;;;;;;;;;;;;;;;15.50;49.57;101694.16;2031128;29;19934;-58
2023/03/27 03:02:41;;;;;;;;;;;;;;;15.49;49.36;101685.19;2030427;29;19927;-55
2023/03/27 03:03:52;;;;;;;;;;;;;;;15.49;49.55;101690.66;2023481;29;19998;-55
2023/03/27 03:05:25;;;;;;;;;;;;;;;15.49;49.57;101690.66;2014535;29;19937;-57
2023/03/27 03:06:28;;;;;;;;;;;;;;;15.48;49.43;101689.06;2024264;29;20017;-55
2023/03/27 03:07:33;;;;;;;;;;;;;;;15.49;49.37;101690.66;2030802;29;19923;-56
2023/03/27 03:08:37;;;;;;;;;;;;;;;15.48;49.50;101689.06;2022849;29;19973;-57
2023/03/27 03:09:43;;;;;;;;;;;;;;;15.48;49.52;101689.06;2013395;29;19924;-57
2023/03/27 03:10:45;;;;;;;;;;;;;;;15.47;49.53;101690.22;2022986;29;19931;-56
2023/03/27 03:11:51;;;;;;;;;;;;;;;15.47;49.55;101684.78;2026290;29;19923;-56
2023/03/27 03:12:54;;;;;;;;;;;;;;;15.48;49.43;101691.78;2016313;29;19927;-57
2023/03/27 03:13:57;;;;;;;;;;;;;;;15.47;49.48;101692.16;2023951;29;20466;-56
2023/03/27 03:14:58;;;;;;;;;;;;;;;15.47;49.40;101692.94;2035532;29;20297;-55
2023/03/27 03:16:01;;;;;;;;;;;;;;;15.47;49.53;101692.16;2022883;29;19966;-57
2023/03/27 03:17:03;;;;;;;;;;;;;;;15.47;49.42;101692.94;2022444;29;21154;-56
2023/03/27 03:18:06;;;;;;;;;;;;;;;15.46;49.39;101696.78;2027248;29;19927;-57
2023/03/27 03:19:08;;;;;;;;;;;;;;;15.46;49.43;101693.31;2019063;29;19981;-57
2023/03/27 03:20:11;;;;;;;;;;;;;;;15.46;49.49;101701.47;2019571;29;20715;-57
2023/03/27 03:21:14;;;;;;;;;;;;;;;15.45;49.37;101697.94;2025190;29;19928;-56
2023/03/27 03:22:16;;;;;;;;;;;;;;;15.46;49.37;101696.03;2015903;29;19935;-56
2023/03/27 03:23:19;;;;;;;;;;;;;;;15.46;49.56;101699.50;2020911;29;19928;-56
2023/03/27 03:24:26;;;;;;;;;;;;;;;15.45;49.51;101703.38;2027314;29;20448;-57
2023/03/27 03:25:29;;;;;;;;;;;;;;;15.45;49.56;101697.94;2028516;29;19931;-57
2023/03/27 03:26:32;;;;;;;;;;;;;;;15.44;49.32;101704.53;2027850;29;20018;-56
2023/03/27 03:27:35;;;;;;;;;;;;;;;15.44;49.52;101704.53;2031854;29;20523;-55
2023/03/27 03:28:42;;;;;;;;;;;;;;;15.45;49.30;101700.66;2016460;29;20473;-57
2023/03/27 03:30:03;;;;;;;;;;;;;;;15.44;49.46;101707.25;2017019;29;19928;-56
2023/03/27 03:31:11;;;;;;;;;;;;;;;15.44;49.49;101701.03;2016447;29;19928;-58
2023/03/27 03:32:13;;;;;;;;;;;;;;;15.44;49.39;101712.69;2022127;29;19994;-56
2023/03/27 03:33:18;;;;;;;;;;;;;;;15.44;49.25;101711.91;2023689;29;20411;-57
2023/03/27 03:34:21;;;;;;;;;;;;;;;15.44;49.30;101715.44;2021219;29;19927;-56
2023/03/27 03:35:24;;;;;;;;;;;;;;;15.43;49.41;101711.09;2027353;29;19924;-57
2023/03/27 03:36:29;;;;;;;;;;;;;;;15.43;49.27;101719.28;2027868;29;19928;-57
2023/03/27 03:37:37;;;;;;;;;;;;;;;15.42;49.48;101706.00;2020009;29;20022;-57
2023/03/27 03:38:42;;;;;;;;;;;;;;;15.43;49.43;101719.28;2015975;29;20049;-57
2023/03/27 03:39:47;;;;;;;;;;;;;;;15.43;49.47;101707.63;2022646;29;20365;-57
2023/03/27 03:40:53;;;;;;;;;;;;;;;15.42;49.58;101712.25;2021984;29;19934;-57
2023/03/27 03:41:55;;;;;;;;;;;;;;;15.42;49.40;101711.47;2021949;29;20024;-56
2023/03/27 03:42:59;;;;;;;;;;;;;;;15.42;49.45;101711.47;2028300;29;20401;-57
2023/03/27 03:44:03;;;;;;;;;;;;;;;15.41;49.31;101721.56;2022588;29;19928;-55
2023/03/27 03:45:07;;;;;;;;;;;;;;;15.40;49.29;101714.53;2020534;29;19935;-55
2023/03/27 03:46:09;;;;;;;;;;;;;;;15.41;49.32;101718.06;2030425;29;19927;-56
2023/03/27 03:47:12;;;;;;;;;;;;;;;15.41;49.50;101721.56;2027388;29;19927;-55
2023/03/27 03:48:14;;;;;;;;;;;;;;;15.40;49.41;101722.69;2025856;29;20330;-54
2023/03/27 03:49:17;;;;;;;;;;;;;;;15.41;49.57;101720.78;2028830;29;19927;-56
2023/03/27 03:50:18;;;;;;;;;;;;;;;15.39;49.26;101721.13;2030608;29;19927;-56
2023/03/27 03:51:21;;;;;;;;;;;;;;;15.39;49.38;101721.13;2027870;29;20619;-56
2023/03/27 03:52:23;;;;;;;;;;;;;;;15.39;49.51;101718.41;2031058;29;20281;-55
2023/03/27 03:53:25;;;;;;;;;;;;;;;15.39;49.34;101725.78;2020393;29;19923;-55
2023/03/27 03:54:27;;;;;;;;;;;;;;;15.40;49.24;101722.69;2021410;29;19927;-57
2023/03/27 03:55:30;;;;;;;;;;;;;;;15.39;49.36;101728.50;2027694;29;20447;-57
2023/03/27 03:56:33;;;;;;;;;;;;;;;15.39;49.54;101729.28;2023335;29;19935;-56
2023/03/27 03:57:36;;;;;;;;;;;;;;;15.39;49.29;101718.41;2022483;29;19966;-56
2023/03/27 03:58:47;;;;;;;;;;;;;;;15.37;49.32;101726.09;2018425;29;19952;-55
2023/03/27 03:59:49;;;;;;;;;;;;;;;15.38;49.51;101735.84;2020768;29;19931;-56
2023/03/27 04:01:24;;;;;;;;;;;;;;;15.38;49.35;101732.34;2027036;29;19950;-56
2023/03/27 04:02:31;;;;;;;;;;;;;;;15.38;49.45;101741.31;2018216;29;20054;-56
2023/03/27 04:03:46;;;;;;;;;;;;;;;15.38;49.46;101748.66;2017443;29;20385;-55
2023/03/27 04:04:48;;;;;;;;;;;;;;;15.37;49.70;101747.88;2023224;29;19927;-57
2023/03/27 04:05:51;;;;;;;;;;;;;;;15.37;49.46;101741.63;2030143;29;19934;-56
2023/03/27 04:06:57;;;;;;;;;;;;;;;15.37;49.52;101753.31;2027269;29;19935;-57
2023/03/27 04:08:06;;;;;;;;;;;;;;;15.37;49.52;101750.59;2026014;29;19958;-56
2023/03/27 04:09:27;;;;;;;;;;;;;;;15.37;49.42;101757.94;2022879;29;20117;-56
2023/03/27 04:10:40;;;;;;;;;;;;;;;15.37;49.54;101747.88;2029085;29;19931;-56
2023/03/27 04:11:57;;;;;;;;;;;;;;;15.36;49.44;101759.91;2014954;29;19927;-56
2023/03/27 04:13:16;;;;;;;;;;;;;;;15.36;49.44;101751.72;2020738;29;20306;-57
2023/03/27 04:14:29;;;;;;;;;;;;;;;15.35;49.21;101750.13;2023408;29;19934;-56
2023/03/27 04:15:33;;;;;;;;;;;;;;;15.36;49.50;101759.09;2013971;29;19936;-57
2023/03/27 04:16:46;;;;;;;;;;;;;;;15.36;49.45;101757.19;2015971;29;20630;-57
2023/03/27 04:17:58;;;;;;;;;;;;;;;15.35;49.36;101761.03;2018395;29;19927;-56
2023/03/27 04:19:01;;;;;;;;;;;;;;;15.35;49.35;101755.56;2028569;29;19934;-57
2023/03/27 04:20:06;;;;;;;;;;;;;;;15.35;49.41;101761.03;2022436;29;21133;-57
2023/03/27 04:21:13;;;;;;;;;;;;;;;15.34;49.21;101762.16;2014863;29;19996;-56
2023/03/27 04:22:16;;;;;;;;;;;;;;;15.35;49.40;101763.75;2024461;29;19931;-56
2023/03/27 04:23:19;;;;;;;;;;;;;;;15.35;49.51;101763.75;2034900;29;19966;-56
2023/03/27 04:24:22;;;;;;;;;;;;;;;15.35;49.21;101763.75;2023859;29;20421;-57
2023/03/27 04:25:27;;;;;;;;;;;;;;;15.34;49.31;101773.06;2015400;29;19946;-55
2023/03/27 04:26:28;;;;;;;;;;;;;;;15.33;49.39;101768.75;2011625;29;19932;-57
2023/03/27 04:27:51;;;;;;;;;;;;;;;15.33;49.24;101768.75;2026373;29;19931;-57
2023/03/27 04:28:59;;;;;;;;;;;;;;;15.33;49.42;101779.66;2029031;29;20026;-57
2023/03/27 04:30:42;;;;;;;;;;;;;;;15.33;49.40;101795.97;2013594;29;20378;-57
2023/03/27 04:32:04;;;;;;;;;;;;;;;15.34;49.51;101791.31;2018232;29;19934;-56
2023/03/27 04:33:18;;;;;;;;;;;;;;;15.33;49.47;101795.16;2023327;29;20143;-57
2023/03/27 04:34:39;;;;;;;;;;;;;;;15.33;49.48;101801.41;2035697;29;19950;-57
2023/03/27 04:36:02;;;;;;;;;;;;;;;15.32;49.39;101799.81;2031005;29;19923;-55
2023/03/27 04:37:17;;;;;;;;;;;;;;;15.32;49.51;101799.81;2018726;29;19932;-57
2023/03/27 04:38:33;;;;;;;;;;;;;;;15.33;49.48;101808.78;2018136;29;20022;-57
2023/03/27 04:39:41;;;;;;;;;;;;;;;15.32;49.33;101799.03;2022401;29;20210;-57
2023/03/27 04:40:44;;;;;;;;;;;;;;;15.32;49.47;101802.53;2029337;29;20025;-56
2023/03/27 04:41:48;;;;;;;;;;;;;;;15.32;49.33;101801.75;2027666;29;19927;-56
2023/03/27 04:42:50;;;;;;;;;;;;;;;15.31;49.32;101802.88;2021650;29;20400;-57
2023/03/27 04:43:54;;;;;;;;;;;;;;;15.31;49.32;101805.59;2028298;29;20397;-57
2023/03/27 04:44:56;;;;;;;;;;;;;;;15.31;49.32;101809.13;2034925;29;20356;-57
2023/03/27 04:46:00;;;;;;;;;;;;;;;15.30;49.14;101807.53;2032996;29;19926;-55
2023/03/27 04:47:02;;;;;;;;;;;;;;;15.31;49.46;101808.31;2023205;29;19958;-56
2023/03/27 04:48:05;;;;;;;;;;;;;;;15.31;49.51;101806.41;2018984;29;20488;-57
2023/03/27 04:49:08;;;;;;;;;;;;;;;15.30;49.45;101806.75;2026540;29;19977;-55
2023/03/27 04:50:26;;;;;;;;;;;;;;;15.30;49.31;101806.75;2014691;29;20005;-57
2023/03/27 04:51:31;;;;;;;;;;;;;;;15.30;49.37;101806.75;2026328;29;19934;-57
2023/03/27 04:52:34;;;;;;;;;;;;;;;15.29;49.48;101802.44;2020508;29;19928;-57
2023/03/27 04:53:36;;;;;;;;;;;;;;;15.29;49.41;101805.97;2022621;29;20015;-56
2023/03/27 04:54:40;;;;;;;;;;;;;;;15.30;49.49;101806.75;2021859;29;20441;-57
2023/03/27 04:55:42;;;;;;;;;;;;;;;15.29;49.35;101811.41;2017799;29;20022;-60
2023/03/27 04:56:45;;;;;;;;;;;;;;;15.29;49.43;101816.03;2020666;29;19937;-55
2023/03/27 04:57:48;;;;;;;;;;;;;;;15.29;49.47;101816.03;2028439;29;19931;-55
2023/03/27 04:58:50;;;;;;;;;;;;;;;15.29;49.28;101813.31;2020700;29;19995;-57
2023/03/27 04:59:52;;;;;;;;;;;;;;;15.29;49.44;101819.56;2024038;29;19994;-57
2023/03/27 05:01:16;;;;;;;;;;;;;;;15.28;49.37;101819.91;2016775;29;19931;-57
2023/03/27 05:02:38;;;;;;;;;;;;;;;15.28;49.52;101815.28;2030446;29;19928;-57
2023/03/27 05:03:49;;;;;;;;;;;;;;;15.27;49.21;101821.81;2016292;29;20022;-57
2023/03/27 05:05:03;;;;;;;;;;;;;;;15.27;49.49;101824.56;2013268;29;19950;-55
2023/03/27 05:06:08;;;;;;;;;;;;;;;15.28;49.46;101823.44;2019564;29;20585;-55
2023/03/27 05:07:12;;;;;;;;;;;;;;;15.28;49.32;101823.44;2018081;29;19967;-57
2023/03/27 05:08:14;;;;;;;;;;;;;;;15.27;49.19;101830.00;2015941;29;19928;-57
2023/03/27 05:09:17;;;;;;;;;;;;;;;15.27;49.47;101837.38;2031268;29;20011;-55
2023/03/27 05:10:19;;;;;;;;;;;;;;;15.27;49.50;101840.09;2022351;29;19931;-56
2023/03/27 05:11:23;;;;;;;;;;;;;;;15.26;49.50;101836.59;2019227;29;19971;-57
2023/03/27 05:12:25;;;;;;;;;;;;;;;15.27;49.50;101840.09;2021182;29;19934;-57
2023/03/27 05:13:33;;;;;;;;;;;;;;;15.26;49.40;101828.41;2026569;29;20356;-57
2023/03/27 05:14:35;;;;;;;;;;;;;;;15.26;49.38;101827.63;2023458;29;19935;-58
2023/03/27 05:15:43;;;;;;;;;;;;;;;15.26;49.36;101839.31;2023620;29;19923;-57
2023/03/27 05:16:50;;;;;;;;;;;;;;;15.26;49.45;101833.06;2028094;29;20457;-55
2023/03/27 05:17:55;;;;;;;;;;;;;;;15.25;49.54;101831.50;2027508;29;20704;-57
2023/03/27 05:18:58;;;;;;;;;;;;;;;15.25;49.49;101826.84;2021890;29;20019;-57
2023/03/27 05:20:01;;;;;;;;;;;;;;;15.25;49.45;101840.44;2019875;29;20015;-57
2023/03/27 05:21:06;;;;;;;;;;;;;;;15.25;49.63;101842.38;2023487;29;19923;-57
2023/03/27 05:22:09;;;;;;;;;;;;;;;15.25;49.66;101837.72;2025421;29;20437;-57
2023/03/27 05:23:21;;;;;;;;;;;;;;;15.25;49.61;101842.38;2019608;29;20018;-56
2023/03/27 05:24:23;;;;;;;;;;;;;;;15.24;49.52;101847.00;2014516;29;20390;-56
2023/03/27 05:25:26;;;;;;;;;;;;;;;15.24;49.47;101844.28;2023170;29;19927;-55
2023/03/27 05:26:29;;;;;;;;;;;;;;;15.25;49.51;101845.09;2029039;29;19935;-57
2023/03/27 05:27:33;;;;;;;;;;;;;;;15.24;49.52;101847.00;2018000;29;19928;-56
2023/03/27 05:28:35;;;;;;;;;;;;;;;15.24;49.42;101852.44;2012974;29;19959;-57
2023/03/27 05:29:37;;;;;;;;;;;;;;;15.23;49.54;101853.59;2016214;29;19931;-57
2023/03/27 05:30:48;;;;;;;;;;;;;;;15.23;49.42;101856.31;2016146;29;19928;-57
2023/03/27 05:31:57;;;;;;;;;;;;;;;15.23;49.62;101864.47;2023108;29;20704;-57
2023/03/27 05:33:28;;;;;;;;;;;;;;;15.23;49.39;101859.03;2020226;29;19924;-55
2023/03/27 05:34:30;;;;;;;;;;;;;;;15.22;49.44;101860.19;2010544;29;20449;-55
2023/03/27 05:35:36;;;;;;;;;;;;;;;15.23;49.46;101867.22;2010670;29;19935;-55
2023/03/27 05:36:38;;;;;;;;;;;;;;;15.23;49.46;101863.69;2026613;29;19923;-58
2023/03/27 05:37:41;;;;;;;;;;;;;;;15.22;49.53;101865.63;2027898;29;19974;-55
2023/03/27 05:39:06;;;;;;;;;;;;;;;15.22;49.31;101860.19;2012882;29;19966;-59
2023/03/27 05:40:14;;;;;;;;;;;;;;;15.22;49.65;101865.63;2026106;29;19927;-56
2023/03/27 05:41:17;;;;;;;;;;;;;;;15.22;49.47;101865.63;2020872;29;19927;-56
2023/03/27 05:42:21;;;;;;;;;;;;;;;15.23;49.55;101866.41;2017440;29;19990;-56
2023/03/27 05:43:24;;;;;;;;;;;;;;;15.22;49.48;101865.63;2023375;29;19927;-57